createdAt,value
2017-11-12T00:00:38.282Z,3.81
2017-11-12T00:01:38.192Z,3.75
2017-11-12T00:03:31.441Z,3.63
2017-11-12T00:04:31.374Z,3.72
2017-11-12T00:06:24.647Z,3.71
2017-11-12T00:07:24.552Z,3.72
2017-11-12T00:09:17.797Z,3.66
2017-11-12T00:10:17.721Z,3.58
2017-11-12T00:12:10.991Z,3.64
2017-11-12T00:13:10.898Z,3.61
2017-11-12T00:15:04.175Z,3.61
2017-11-12T00:16:04.083Z,3.61
2017-11-12T00:17:57.364Z,3.61
2017-11-12T00:18:57.294Z,3.66
2017-11-12T00:20:50.562Z,3.61
2017-11-12T00:21:50.470Z,3.60
2017-11-12T00:23:43.723Z,3.57
2017-11-12T00:24:43.648Z,3.64
2017-11-12T00:26:36.921Z,3.57
2017-11-12T00:27:36.830Z,3.56
2017-11-12T00:29:30.076Z,3.45
2017-11-12T00:30:30.007Z,3.53
2017-11-12T00:32:23.274Z,3.58
2017-11-12T00:33:23.182Z,3.63
2017-11-12T00:35:16.454Z,3.54
2017-11-12T00:36:16.362Z,3.51
2017-11-12T00:38:09.613Z,3.53
2017-11-12T00:39:09.546Z,3.53
2017-11-12T00:41:02.812Z,3.54
2017-11-12T00:42:02.720Z,3.56
2017-11-12T00:43:55.974Z,3.57
2017-11-12T00:44:55.905Z,3.64
2017-11-12T00:46:49.175Z,3.69
2017-11-12T00:47:49.085Z,3.63
2017-11-12T00:49:42.328Z,3.58
2017-11-12T00:50:42.256Z,3.63
2017-11-12T00:52:35.525Z,3.56
2017-11-12T00:53:35.443Z,3.49
2017-11-12T00:55:28.705Z,3.48
2017-11-12T00:56:28.614Z,3.39
2017-11-12T00:58:21.878Z,3.45
2017-11-12T00:59:21.797Z,3.43
2017-11-12T01:01:15.063Z,3.45
2017-11-12T01:02:14.974Z,3.37
2017-11-12T01:04:08.221Z,3.46
2017-11-12T01:05:08.140Z,3.39
2017-11-12T01:07:01.409Z,3.40
2017-11-12T01:08:01.348Z,3.39
2017-11-12T01:09:54.574Z,3.42
2017-11-12T01:10:54.497Z,3.40
2017-11-12T01:12:47.760Z,3.39
2017-11-12T01:13:47.668Z,3.40
2017-11-12T01:15:40.939Z,3.40
2017-11-12T01:16:40.850Z,3.42
2017-11-12T01:18:34.101Z,3.45
2017-11-12T01:19:34.030Z,3.39
2017-11-12T01:21:27.381Z,3.40
2017-11-12T01:22:27.289Z,3.26
2017-11-12T01:24:20.539Z,3.30
2017-11-12T01:25:20.459Z,3.35
2017-11-12T01:27:13.722Z,3.43
2017-11-12T01:28:13.624Z,3.24
2017-11-12T01:30:06.891Z,3.24
2017-11-12T01:31:06.803Z,3.24
2017-11-12T01:33:00.067Z,3.40
2017-11-12T01:33:59.970Z,3.32
2017-11-12T01:35:53.244Z,3.35
2017-11-12T01:36:53.153Z,3.26
2017-11-12T01:38:46.398Z,3.32
2017-11-12T01:39:46.336Z,3.21
2017-11-12T01:41:39.598Z,3.35
2017-11-12T01:42:39.505Z,3.24
2017-11-12T01:44:32.748Z,3.23
2017-11-12T01:45:32.679Z,3.16
2017-11-12T01:47:25.942Z,3.17
2017-11-12T01:48:25.854Z,3.17
2017-11-12T01:50:19.094Z,3.11
2017-11-12T01:51:19.018Z,3.13
2017-11-12T01:53:12.292Z,3.16
2017-11-12T01:54:12.200Z,3.14
2017-11-12T01:56:05.470Z,3.19
2017-11-12T01:57:05.381Z,3.17
2017-11-12T01:58:58.620Z,3.08
2017-11-12T01:59:58.547Z,3.14
2017-11-12T02:01:51.819Z,3.19
2017-11-12T02:02:51.736Z,3.13
2017-11-12T02:04:44.978Z,3.17
2017-11-12T02:05:44.905Z,3.11
2017-11-12T02:07:38.178Z,3.17
2017-11-12T02:08:38.116Z,3.14
2017-11-12T02:10:31.363Z,3.06
2017-11-12T02:11:31.290Z,3.16
2017-11-12T02:13:24.565Z,3.14
2017-11-12T02:14:24.469Z,3.16
2017-11-12T02:16:17.730Z,3.24
2017-11-12T02:17:17.640Z,3.16
2017-11-12T02:19:10.882Z,3.26
2017-11-12T02:20:10.807Z,3.19
2017-11-12T02:22:04.078Z,3.23
2017-11-12T02:23:03.985Z,3.20
2017-11-12T02:24:57.238Z,3.21
2017-11-12T02:25:57.164Z,3.24
2017-11-12T02:27:50.430Z,3.16
2017-11-12T02:28:50.336Z,3.19
2017-11-12T02:30:43.584Z,3.26
2017-11-12T02:31:43.512Z,3.26
2017-11-12T02:33:36.784Z,3.19
2017-11-12T02:34:36.691Z,3.11
2017-11-12T02:36:29.961Z,3.19
2017-11-12T02:37:29.871Z,3.24
2017-11-12T02:39:23.114Z,3.23
2017-11-12T02:40:23.046Z,3.24
2017-11-12T02:42:16.309Z,3.24
2017-11-12T02:43:16.220Z,3.29
2017-11-12T02:45:09.476Z,3.24
2017-11-12T02:46:09.404Z,3.20
2017-11-12T02:48:02.692Z,3.29
2017-11-12T02:49:02.577Z,3.17
2017-11-12T02:50:55.831Z,3.11
2017-11-12T02:51:55.755Z,3.26
2017-11-12T02:53:49.028Z,3.16
2017-11-12T02:54:48.937Z,3.27
2017-11-12T02:56:42.207Z,3.24
2017-11-12T02:57:42.117Z,3.13
2017-11-12T02:59:35.366Z,3.20
2017-11-12T03:00:35.297Z,3.17
2017-11-12T03:02:28.571Z,3.14
2017-11-12T03:03:28.477Z,3.14
2017-11-12T03:05:21.726Z,3.14
2017-11-12T03:06:21.656Z,3.13
2017-11-12T03:08:14.928Z,3.11
2017-11-12T03:09:14.838Z,3.14
2017-11-12T03:11:08.086Z,3.16
2017-11-12T03:12:08.013Z,3.09
2017-11-12T03:14:01.284Z,3.21
2017-11-12T03:15:01.195Z,3.14
2017-11-12T03:16:54.464Z,3.06
2017-11-12T03:17:54.374Z,3.03
2017-11-12T03:19:47.617Z,3.14
2017-11-12T03:20:47.544Z,3.08
2017-11-12T03:22:40.818Z,3.13
2017-11-12T03:23:40.722Z,3.13
2017-11-12T03:25:33.983Z,3.05
2017-11-12T03:26:33.906Z,3.09
2017-11-12T03:28:27.168Z,3.14
2017-11-12T03:29:27.074Z,3.09
2017-11-12T03:31:20.331Z,3.17
2017-11-12T03:32:20.256Z,3.16
2017-11-12T03:34:13.526Z,3.16
2017-11-12T03:35:13.440Z,3.13
2017-11-12T03:37:06.716Z,3.13
2017-11-12T03:38:06.626Z,3.19
2017-11-12T03:39:59.870Z,3.17
2017-11-12T03:40:59.798Z,3.17
2017-11-12T03:42:53.067Z,3.20
2017-11-12T03:43:52.974Z,3.19
2017-11-12T03:45:46.226Z,3.17
2017-11-12T03:46:46.153Z,3.13
2017-11-12T03:48:39.428Z,3.16
2017-11-12T03:49:39.333Z,3.17
2017-11-12T03:51:32.617Z,3.17
2017-11-12T03:52:32.543Z,3.13
2017-11-12T03:54:25.816Z,3.16
2017-11-12T03:55:25.721Z,3.16
2017-11-12T03:57:18.993Z,3.16
2017-11-12T03:58:18.898Z,3.13
2017-11-12T04:00:12.152Z,3.14
2017-11-12T04:01:12.081Z,3.17
2017-11-12T04:03:05.381Z,3.19
2017-11-12T04:04:05.287Z,3.11
2017-11-12T04:05:58.540Z,3.16
2017-11-12T04:06:58.466Z,3.16
2017-11-12T04:08:51.730Z,3.23
2017-11-12T04:09:51.639Z,3.17
2017-11-12T04:11:44.892Z,3.24
2017-11-12T04:12:44.818Z,3.24
2017-11-12T04:14:38.092Z,3.26
2017-11-12T04:15:37.996Z,3.26
2017-11-12T04:17:31.257Z,3.27
2017-11-12T04:18:31.166Z,3.29
2017-11-12T04:20:24.417Z,3.27
2017-11-12T04:21:24.345Z,3.30
2017-11-12T04:23:17.615Z,3.29
2017-11-12T04:24:17.526Z,3.35
2017-11-12T04:26:10.777Z,3.37
2017-11-12T04:27:10.708Z,3.27
2017-11-12T04:29:03.964Z,3.27
2017-11-12T04:30:03.874Z,3.40
2017-11-12T04:31:57.125Z,3.40
2017-11-12T04:32:57.053Z,3.40
2017-11-12T04:34:50.322Z,3.40
2017-11-12T04:35:50.233Z,3.45
2017-11-12T04:37:43.520Z,3.43
2017-11-12T04:38:43.412Z,3.45
2017-11-12T04:40:36.668Z,3.43
2017-11-12T04:41:36.596Z,3.48
2017-11-12T04:43:29.869Z,3.48
2017-11-12T04:44:29.773Z,3.40
2017-11-12T04:46:23.029Z,3.42
2017-11-12T04:47:22.960Z,3.43
2017-11-12T04:49:16.220Z,3.39
2017-11-12T04:50:16.130Z,3.45
2017-11-12T04:52:09.389Z,3.49
2017-11-12T04:53:09.311Z,3.53
2017-11-12T04:55:02.600Z,3.42
2017-11-12T04:56:02.491Z,3.43
2017-11-12T04:57:55.768Z,3.45
2017-11-12T04:58:55.670Z,3.45
2017-11-12T05:00:48.923Z,3.46
2017-11-12T05:01:48.853Z,3.43
2017-11-12T05:03:42.123Z,3.42
2017-11-12T05:04:42.030Z,3.43
2017-11-12T05:06:35.285Z,3.40
2017-11-12T05:07:35.213Z,3.40
2017-11-12T05:09:28.477Z,3.42
2017-11-12T05:10:28.382Z,3.51
2017-11-12T05:12:21.636Z,3.53
2017-11-12T05:13:21.564Z,3.45
2017-11-12T05:15:14.837Z,3.45
2017-11-12T05:16:14.745Z,3.49
2017-11-12T05:18:08.023Z,3.53
2017-11-12T05:19:07.925Z,3.53
2017-11-12T05:21:01.178Z,3.54
2017-11-12T05:22:01.103Z,3.43
2017-11-12T05:23:54.382Z,3.43
2017-11-12T05:24:54.288Z,3.56
2017-11-12T05:26:47.541Z,3.60
2017-11-12T05:27:47.467Z,3.57
2017-11-12T05:29:40.736Z,3.57
2017-11-12T05:30:40.639Z,3.63
2017-11-12T05:32:33.894Z,3.56
2017-11-12T05:33:33.821Z,3.61
2017-11-12T05:35:28.080Z,3.56
2017-11-12T05:36:27.990Z,3.60
2017-11-12T05:38:21.264Z,3.58
2017-11-12T05:39:21.167Z,3.54
2017-11-12T05:41:14.422Z,3.64
2017-11-12T05:42:14.351Z,3.61
2017-11-12T05:44:07.622Z,3.61
2017-11-12T05:45:07.530Z,3.66
2017-11-12T05:47:00.783Z,3.58
2017-11-12T05:48:00.712Z,3.57
2017-11-12T05:49:53.983Z,3.69
2017-11-12T05:50:53.890Z,3.69
2017-11-12T05:52:47.150Z,3.69
2017-11-12T05:53:47.072Z,3.69
2017-11-12T05:55:40.380Z,3.64
2017-11-12T05:56:40.288Z,3.74
2017-11-12T05:58:33.559Z,3.78
2017-11-12T05:59:33.468Z,3.72
2017-11-12T06:01:26.721Z,3.67
2017-11-12T06:02:26.650Z,3.71
2017-11-12T06:04:19.920Z,3.69
2017-11-12T06:05:19.826Z,3.71
2017-11-12T06:07:13.082Z,3.75
2017-11-12T06:08:13.010Z,3.66
2017-11-12T06:10:06.281Z,3.79
2017-11-12T06:11:06.189Z,3.71
2017-11-12T06:12:59.442Z,3.74
2017-11-12T06:13:59.370Z,3.72
2017-11-12T06:15:52.643Z,3.76
2017-11-12T06:16:52.549Z,3.81
2017-11-12T06:18:45.812Z,3.76
2017-11-12T06:19:45.719Z,3.76
2017-11-12T06:21:38.973Z,3.76
2017-11-12T06:22:38.901Z,3.72
2017-11-12T06:24:32.171Z,3.75
2017-11-12T06:25:32.081Z,3.90
2017-11-12T06:27:25.339Z,3.76
2017-11-12T06:28:25.269Z,3.85
2017-11-12T06:30:18.539Z,3.84
2017-11-12T06:31:18.448Z,3.86
2017-11-12T06:33:11.702Z,3.85
2017-11-12T06:34:11.633Z,3.78
2017-11-12T06:36:04.899Z,3.94
2017-11-12T06:37:04.810Z,3.93
2017-11-12T06:38:58.082Z,3.92
2017-11-12T06:39:57.981Z,3.96
2017-11-12T06:41:51.238Z,3.97
2017-11-12T06:42:51.170Z,4.02
2017-11-12T06:44:44.437Z,3.99
2017-11-12T06:45:44.349Z,4.00
2017-11-12T06:47:37.602Z,4.00
2017-11-12T06:48:37.531Z,4.07
2017-11-12T06:50:30.805Z,4.02
2017-11-12T06:51:30.712Z,4.03
2017-11-12T06:53:23.963Z,4.00
2017-11-12T06:54:23.891Z,4.07
2017-11-12T06:56:17.164Z,4.14
2017-11-12T06:57:17.083Z,4.15
2017-11-12T06:59:10.381Z,4.21
2017-11-12T07:00:10.289Z,4.18
2017-11-12T07:02:03.545Z,4.18
2017-11-12T07:03:03.473Z,4.17
2017-11-12T07:04:56.745Z,4.26
2017-11-12T07:05:56.659Z,4.21
2017-11-12T07:07:49.912Z,4.30
2017-11-12T07:08:49.837Z,4.20
2017-11-12T07:10:43.119Z,4.36
2017-11-12T07:11:43.020Z,4.22
2017-11-12T07:13:36.376Z,4.29
2017-11-12T07:14:36.290Z,4.32
2017-11-12T07:16:29.567Z,4.35
2017-11-12T07:17:29.477Z,4.33
2017-11-12T07:19:22.738Z,4.30
2017-11-12T07:20:22.650Z,4.32
2017-11-12T07:22:15.904Z,4.30
2017-11-12T07:23:15.834Z,4.32
2017-11-12T07:25:09.108Z,4.30
2017-11-12T07:26:09.015Z,4.39
2017-11-12T07:28:02.271Z,4.44
2017-11-12T07:29:02.200Z,4.44
2017-11-12T07:30:55.471Z,4.40
2017-11-12T07:31:55.380Z,4.40
2017-11-12T07:33:48.632Z,4.44
2017-11-12T07:34:48.563Z,4.46
2017-11-12T07:36:41.835Z,4.54
2017-11-12T07:37:41.745Z,4.56
2017-11-12T07:39:35.008Z,4.50
2017-11-12T07:40:34.917Z,4.58
2017-11-12T07:42:28.169Z,4.56
2017-11-12T07:43:28.096Z,4.60
2017-11-12T07:45:21.370Z,4.54
2017-11-12T07:46:21.278Z,4.53
2017-11-12T07:48:14.527Z,4.54
2017-11-12T07:49:14.462Z,4.64
2017-11-12T07:51:07.736Z,4.64
2017-11-12T07:52:07.644Z,4.65
2017-11-12T07:54:00.904Z,4.61
2017-11-12T07:55:00.826Z,4.65
2017-11-12T07:56:54.101Z,4.68
2017-11-12T07:57:54.010Z,4.64
2017-11-12T07:59:47.274Z,4.68
2017-11-12T08:00:47.184Z,4.74
2017-11-12T08:02:40.436Z,4.71
2017-11-12T08:03:40.367Z,4.65
2017-11-12T08:05:33.637Z,4.75
2017-11-12T08:06:33.550Z,4.78
2017-11-12T08:08:26.801Z,4.75
2017-11-12T08:09:26.731Z,4.76
2017-11-12T08:11:20.004Z,4.78
2017-11-12T08:12:19.913Z,4.76
2017-11-12T08:14:13.167Z,4.76
2017-11-12T08:15:13.096Z,4.79
2017-11-12T08:17:06.388Z,4.78
2017-11-12T08:18:06.295Z,4.78
2017-11-12T08:19:59.566Z,4.79
2017-11-12T08:20:59.477Z,4.79
2017-11-12T08:22:52.733Z,4.75
2017-11-12T08:23:52.659Z,4.83
2017-11-12T08:25:45.932Z,4.75
2017-11-12T08:26:45.841Z,4.88
2017-11-12T08:28:39.097Z,4.87
2017-11-12T08:29:39.024Z,4.92
2017-11-12T08:31:32.381Z,4.98
2017-11-12T08:32:32.291Z,5.02
2017-11-12T08:34:25.548Z,4.97
2017-11-12T08:35:25.477Z,4.98
2017-11-12T08:37:18.748Z,5.08
2017-11-12T08:38:18.656Z,5.06
2017-11-12T08:40:11.933Z,5.06
2017-11-12T08:41:11.837Z,5.08
2017-11-12T08:43:05.092Z,5.13
2017-11-12T08:44:05.024Z,5.12
2017-11-12T08:45:58.384Z,5.24
2017-11-12T08:46:58.291Z,5.21
2017-11-12T08:48:51.536Z,5.28
2017-11-12T08:49:51.464Z,5.27
2017-11-12T08:51:44.717Z,5.26
2017-11-12T08:52:44.637Z,5.24
2017-11-12T08:54:37.885Z,5.30
2017-11-12T08:55:37.814Z,5.26
2017-11-12T08:57:31.077Z,5.20
2017-11-12T08:58:30.986Z,5.34
2017-11-12T09:00:24.258Z,5.26
2017-11-12T09:01:24.166Z,5.26
2017-11-12T09:03:17.414Z,5.28
2017-11-12T09:04:17.342Z,5.28
2017-11-12T09:06:10.655Z,5.33
2017-11-12T09:07:10.518Z,5.26
2017-11-12T09:09:03.759Z,5.28
2017-11-12T09:10:03.692Z,5.28
2017-11-12T09:11:56.951Z,5.24
2017-11-12T09:12:56.861Z,5.26
2017-11-12T09:14:50.106Z,5.30
2017-11-12T09:15:50.033Z,5.27
2017-11-12T09:17:43.296Z,5.21
2017-11-12T09:18:43.205Z,5.26
2017-11-12T09:20:36.468Z,5.28
2017-11-12T09:21:36.377Z,5.26
2017-11-12T09:23:29.626Z,5.26
2017-11-12T09:24:29.559Z,5.27
2017-11-12T09:26:22.820Z,5.27
2017-11-12T09:27:22.731Z,5.31
2017-11-12T09:29:15.976Z,5.27
2017-11-12T09:30:15.929Z,5.31
2017-11-12T09:32:09.176Z,5.27
2017-11-12T09:33:09.075Z,5.33
2017-11-12T09:35:02.386Z,5.27
2017-11-12T09:36:02.294Z,5.34
2017-11-12T09:37:55.546Z,5.28
2017-11-12T09:38:55.473Z,5.26
2017-11-12T09:40:48.739Z,5.37
2017-11-12T09:41:48.652Z,5.28
2017-11-12T09:43:41.894Z,5.44
2017-11-12T09:44:41.815Z,5.39
2017-11-12T09:46:35.080Z,5.26
2017-11-12T09:47:34.993Z,5.33
2017-11-12T09:49:29.240Z,5.33
2017-11-12T09:50:29.168Z,5.36
2017-11-12T09:52:22.428Z,5.36
2017-11-12T09:53:22.338Z,5.45
2017-11-12T09:55:15.701Z,5.44
2017-11-12T09:56:15.523Z,5.48
2017-11-12T09:58:08.777Z,5.41
2017-11-12T09:59:08.705Z,5.41
2017-11-12T10:01:01.978Z,5.44
2017-11-12T10:02:01.893Z,5.51
2017-11-12T10:03:55.134Z,5.59
2017-11-12T10:04:55.062Z,5.66
2017-11-12T10:06:48.385Z,5.60
2017-11-12T10:07:48.293Z,5.62
2017-11-12T10:09:41.539Z,5.67
2017-11-12T10:10:41.467Z,5.66
2017-11-12T10:12:35.576Z,5.66
2017-11-12T10:13:35.485Z,5.64
2017-11-12T10:15:28.752Z,5.78
2017-11-12T10:16:28.660Z,5.70
2017-11-12T10:18:21.916Z,5.78
2017-11-12T10:19:21.837Z,5.73
2017-11-12T10:21:15.124Z,5.82
2017-11-12T10:22:15.024Z,5.82
2017-11-12T10:24:08.270Z,5.87
2017-11-12T10:25:08.195Z,5.69
2017-11-12T10:27:01.466Z,5.81
2017-11-12T10:28:01.375Z,5.81
2017-11-12T10:29:54.620Z,5.72
2017-11-12T10:30:54.544Z,5.69
2017-11-12T10:32:47.821Z,5.63
2017-11-12T10:33:47.732Z,5.64
2017-11-12T10:35:40.998Z,5.55
2017-11-12T10:36:40.906Z,5.64
2017-11-12T10:38:34.152Z,5.66
2017-11-12T10:39:34.079Z,5.64
2017-11-12T10:41:27.339Z,5.62
2017-11-12T10:42:27.251Z,5.62
2017-11-12T10:44:20.498Z,5.67
2017-11-12T10:45:20.432Z,5.63
2017-11-12T10:47:13.696Z,5.66
2017-11-12T10:48:13.593Z,5.67
2017-11-12T10:50:06.852Z,5.62
2017-11-12T10:51:06.788Z,5.60
2017-11-12T10:53:00.051Z,5.54
2017-11-12T10:53:59.971Z,5.51
2017-11-12T10:55:53.222Z,5.60
2017-11-12T10:56:53.133Z,5.57
2017-11-12T10:58:46.383Z,5.60
2017-11-12T10:59:46.307Z,5.57
2017-11-12T11:01:39.570Z,5.48
2017-11-12T11:02:39.478Z,5.52
2017-11-12T11:04:32.729Z,5.66
2017-11-12T11:05:32.657Z,5.59
2017-11-12T11:07:25.920Z,5.63
2017-11-12T11:08:25.827Z,5.57
2017-11-12T11:10:19.082Z,5.52
2017-11-12T11:11:19.012Z,5.52
2017-11-12T11:13:12.275Z,5.44
2017-11-12T11:14:12.185Z,5.42
2017-11-12T11:16:05.472Z,5.45
2017-11-12T11:17:05.377Z,5.48
2017-11-12T11:18:58.635Z,5.49
2017-11-12T11:19:58.554Z,5.45
2017-11-12T11:21:51.828Z,5.44
2017-11-12T11:22:51.737Z,5.52
2017-11-12T11:24:44.982Z,5.55
2017-11-12T11:25:44.913Z,5.51
2017-11-12T11:27:38.177Z,5.55
2017-11-12T11:28:38.078Z,5.52
2017-11-12T11:30:31.365Z,5.64
2017-11-12T11:31:31.290Z,5.62
2017-11-12T11:33:24.556Z,5.63
2017-11-12T11:34:24.464Z,5.72
2017-11-12T11:36:17.729Z,5.66
2017-11-12T11:37:17.636Z,5.55
2017-11-12T11:39:10.889Z,5.55
2017-11-12T11:40:10.812Z,5.55
2017-11-12T11:42:04.086Z,5.55
2017-11-12T11:43:03.996Z,5.63
2017-11-12T11:44:57.240Z,5.60
2017-11-12T11:45:57.170Z,5.54
2017-11-12T11:47:50.446Z,5.46
2017-11-12T11:48:50.358Z,5.52
2017-11-12T11:50:43.605Z,5.57
2017-11-12T11:51:43.532Z,5.66
2017-11-12T11:53:36.800Z,5.66
2017-11-12T11:54:36.713Z,5.69
2017-11-12T11:56:29.986Z,5.69
2017-11-12T11:57:29.897Z,5.62
2017-11-12T11:59:23.141Z,5.66
2017-11-12T12:00:23.069Z,5.66
2017-11-12T12:02:16.538Z,5.82
2017-11-12T12:03:16.448Z,5.80
2017-11-12T12:05:09.209Z,5.80
2017-11-12T12:06:09.137Z,5.73
2017-11-12T12:08:02.429Z,5.78
2017-11-12T12:09:02.326Z,5.72
2017-11-12T12:10:55.571Z,5.69
2017-11-12T12:11:55.499Z,5.73
2017-11-12T12:13:48.761Z,5.77
2017-11-12T12:14:48.663Z,5.75
2017-11-12T12:16:41.957Z,5.66
2017-11-12T12:17:41.854Z,5.78
2017-11-12T12:19:35.104Z,5.75
2017-11-12T12:20:35.050Z,5.77
2017-11-12T12:22:28.294Z,5.81
2017-11-12T12:23:28.221Z,5.80
2017-11-12T12:25:21.457Z,5.84
2017-11-12T12:26:21.382Z,5.88
2017-11-12T12:28:14.644Z,5.92
2017-11-12T12:29:14.558Z,5.89
2017-11-12T12:31:07.823Z,5.96
2017-11-12T12:32:07.751Z,5.92
2017-11-12T12:34:01.030Z,5.89
2017-11-12T12:35:00.983Z,5.87
2017-11-12T12:36:54.206Z,5.75
2017-11-12T12:37:54.116Z,5.72
2017-11-12T12:39:47.365Z,5.85
2017-11-12T12:40:47.298Z,5.87
2017-11-12T12:42:40.127Z,5.81
2017-11-12T12:43:40.002Z,5.80
2017-11-12T12:45:33.243Z,5.84
2017-11-12T12:46:33.176Z,5.92
2017-11-12T12:48:26.440Z,5.77
2017-11-12T12:49:26.349Z,5.85
2017-11-12T12:51:19.614Z,6.05
2017-11-12T12:52:19.525Z,5.99
2017-11-12T12:54:12.793Z,6.09
2017-11-12T12:55:12.696Z,6.06
2017-11-12T12:57:05.969Z,5.92
2017-11-12T12:58:05.881Z,5.98
2017-11-12T12:59:58.672Z,6.06
2017-11-12T13:00:58.583Z,6.10
2017-11-12T13:02:51.867Z,6.02
2017-11-12T13:03:51.771Z,6.13
2017-11-12T13:05:45.039Z,6.15
2017-11-12T13:06:44.968Z,6.06
2017-11-12T13:08:38.242Z,6.13
2017-11-12T13:09:38.146Z,6.20
2017-11-12T13:11:31.417Z,6.18
2017-11-12T13:12:31.325Z,6.18
2017-11-12T13:14:24.569Z,6.10
2017-11-12T13:15:24.501Z,6.18
2017-11-12T13:17:17.768Z,6.29
2017-11-12T13:18:17.679Z,6.24
2017-11-12T13:20:10.925Z,6.37
2017-11-12T13:21:10.862Z,6.42
2017-11-12T13:23:04.119Z,6.49
2017-11-12T13:24:04.030Z,6.44
2017-11-12T13:25:57.365Z,6.44
2017-11-12T13:26:57.293Z,6.44
2017-11-12T13:28:50.168Z,6.42
2017-11-12T13:29:50.067Z,6.31
2017-11-12T13:31:43.406Z,6.20
2017-11-12T13:32:43.295Z,6.24
2017-11-12T13:34:36.566Z,6.25
2017-11-12T13:35:36.490Z,6.28
2017-11-12T13:37:29.753Z,6.26
2017-11-12T13:38:29.662Z,6.26
2017-11-12T13:40:22.933Z,6.20
2017-11-12T13:41:22.861Z,6.17
2017-11-12T13:43:16.159Z,6.15
2017-11-12T13:44:16.032Z,6.13
2017-11-12T13:46:09.362Z,6.14
2017-11-12T13:47:09.293Z,6.14
2017-11-12T13:49:02.572Z,6.14
2017-11-12T13:50:02.494Z,6.14
2017-11-12T13:51:55.858Z,6.14
2017-11-12T13:52:55.671Z,6.18
2017-11-12T13:54:48.918Z,6.13
2017-11-12T13:55:48.848Z,6.15
2017-11-12T13:57:42.128Z,6.24
2017-11-12T13:58:42.029Z,6.25
2017-11-12T14:00:35.371Z,6.25
2017-11-12T14:01:35.299Z,6.24
2017-11-12T14:03:28.563Z,6.25
2017-11-12T14:04:28.474Z,6.31
2017-11-12T14:06:21.717Z,6.14
2017-11-12T14:07:21.653Z,6.20
2017-11-12T14:09:14.914Z,6.29
2017-11-12T14:10:14.826Z,6.37
2017-11-12T14:12:08.098Z,6.42
2017-11-12T14:13:08.004Z,6.52
2017-11-12T14:15:01.268Z,6.51
2017-11-12T14:16:01.178Z,6.43
2017-11-12T14:17:54.514Z,6.39
2017-11-12T14:18:54.368Z,6.29
2017-11-12T14:20:47.621Z,6.34
2017-11-12T14:21:47.551Z,6.37
2017-11-12T14:23:40.816Z,6.18
2017-11-12T14:24:40.726Z,6.26
2017-11-12T14:26:33.975Z,6.25
2017-11-12T14:27:33.903Z,6.36
2017-11-12T14:29:27.170Z,6.31
2017-11-12T14:30:27.079Z,6.33
2017-11-12T14:32:20.346Z,6.25
2017-11-12T14:33:20.257Z,6.31
2017-11-12T14:35:13.529Z,6.29
2017-11-12T14:36:13.431Z,6.28
2017-11-12T14:38:06.707Z,6.26
2017-11-12T14:39:06.622Z,6.24
2017-11-12T14:40:59.886Z,6.24
2017-11-12T14:41:59.792Z,6.25
2017-11-12T14:43:54.121Z,6.10
2017-11-12T14:44:53.969Z,6.09
2017-11-12T14:46:47.219Z,6.09
2017-11-12T14:47:47.151Z,6.13
2017-11-12T14:49:40.410Z,6.06
2017-11-12T14:50:40.323Z,6.00
2017-11-12T14:52:33.585Z,5.96
2017-11-12T14:53:33.496Z,6.02
2017-11-12T14:55:26.765Z,5.96
2017-11-12T14:56:26.708Z,5.99
2017-11-12T14:58:20.021Z,6.02
2017-11-12T14:59:19.879Z,5.92
2017-11-12T15:01:13.173Z,5.91
2017-11-12T15:02:13.080Z,5.89
2017-11-12T15:04:06.361Z,5.84
2017-11-12T15:05:06.280Z,5.95
2017-11-12T15:06:59.519Z,5.84
2017-11-12T15:07:59.450Z,5.82
2017-11-12T15:09:52.723Z,5.80
2017-11-12T15:10:52.632Z,5.75
2017-11-12T15:12:45.908Z,5.80
2017-11-12T15:13:45.815Z,5.78
2017-11-12T15:15:39.062Z,5.78
2017-11-12T15:16:38.989Z,5.73
2017-11-12T15:18:32.267Z,5.82
2017-11-12T15:19:32.174Z,5.77
2017-11-12T15:21:25.430Z,5.80
2017-11-12T15:22:25.356Z,5.80
2017-11-12T15:24:18.630Z,5.73
2017-11-12T15:25:18.548Z,5.69
2017-11-12T15:27:11.799Z,5.66
2017-11-12T15:28:11.727Z,5.59
2017-11-12T15:30:04.997Z,5.51
2017-11-12T15:31:04.910Z,5.57
2017-11-12T15:32:58.207Z,5.55
2017-11-12T15:33:58.102Z,5.55
2017-11-12T15:35:51.371Z,5.52
2017-11-12T15:36:51.309Z,5.54
2017-11-12T15:38:44.569Z,5.44
2017-11-12T15:39:44.520Z,5.60
2017-11-12T15:41:37.749Z,5.55
2017-11-12T15:42:37.673Z,5.49
2017-11-12T15:44:30.948Z,5.57
2017-11-12T15:45:30.854Z,5.57
2017-11-12T15:47:24.138Z,5.51
2017-11-12T15:48:24.037Z,5.55
2017-11-12T15:50:18.142Z,5.51
2017-11-12T15:51:18.071Z,5.57
2017-11-12T15:53:11.386Z,5.52
2017-11-12T15:54:11.292Z,5.49
2017-11-12T15:56:04.548Z,5.46
2017-11-12T15:57:04.480Z,5.57
2017-11-12T15:58:57.738Z,5.52
2017-11-12T15:59:57.648Z,5.46
2017-11-12T16:01:50.905Z,5.42
2017-11-12T16:02:50.834Z,5.51
2017-11-12T16:04:44.105Z,5.54
2017-11-12T16:05:44.014Z,5.44
2017-11-12T16:07:37.290Z,5.52
2017-11-12T16:08:37.197Z,5.54
2017-11-12T16:10:30.452Z,5.41
2017-11-12T16:11:30.384Z,5.45
2017-11-12T16:13:23.662Z,5.41
2017-11-12T16:14:23.575Z,5.46
2017-11-12T16:16:16.831Z,5.45
2017-11-12T16:17:16.766Z,5.44
2017-11-12T16:19:10.026Z,5.39
2017-11-12T16:20:09.936Z,5.45
2017-11-12T16:22:03.190Z,5.52
2017-11-12T16:23:03.128Z,5.51
2017-11-12T16:24:56.391Z,5.46
2017-11-12T16:25:56.303Z,5.51
2017-11-12T16:27:49.597Z,5.54
2017-11-12T16:28:49.488Z,5.55
2017-11-12T16:30:42.740Z,5.55
2017-11-12T16:31:42.667Z,5.49
2017-11-12T16:33:35.940Z,5.55
2017-11-12T16:34:35.852Z,5.59
2017-11-12T16:36:29.153Z,5.44
2017-11-12T16:37:29.079Z,5.41
2017-11-12T16:39:22.341Z,5.42
2017-11-12T16:40:22.252Z,5.45
2017-11-12T16:42:15.509Z,5.48
2017-11-12T16:43:15.437Z,5.45
2017-11-12T16:45:08.710Z,5.39
2017-11-12T16:46:08.619Z,5.27
2017-11-12T16:48:01.894Z,5.30
2017-11-12T16:49:01.795Z,5.30
2017-11-12T16:50:55.055Z,5.39
2017-11-12T16:51:54.985Z,5.36
2017-11-12T16:53:48.255Z,5.41
2017-11-12T16:54:48.169Z,5.31
2017-11-12T16:56:41.434Z,5.31
2017-11-12T16:57:41.349Z,5.36
2017-11-12T16:59:34.615Z,5.31
2017-11-12T17:00:34.523Z,5.34
2017-11-12T17:02:27.778Z,5.28
2017-11-12T17:03:27.705Z,5.26
2017-11-12T17:05:21.024Z,5.24
2017-11-12T17:06:20.887Z,5.21
2017-11-12T17:08:14.159Z,5.26
2017-11-12T17:09:14.069Z,5.21
2017-11-12T17:11:07.323Z,5.15
2017-11-12T17:12:07.251Z,5.13
2017-11-12T17:14:00.525Z,5.10
2017-11-12T17:15:00.433Z,5.03
2017-11-12T17:16:53.694Z,5.03
2017-11-12T17:17:53.616Z,5.09
2017-11-12T17:19:46.891Z,5.05
2017-11-12T17:20:46.803Z,5.06
2017-11-12T17:22:40.054Z,5.08
2017-11-12T17:23:39.980Z,5.06
2017-11-12T17:25:33.253Z,5.12
2017-11-12T17:26:33.159Z,5.03
2017-11-12T17:28:26.434Z,5.06
2017-11-12T17:29:26.344Z,5.05
2017-11-12T17:31:19.596Z,5.08
2017-11-12T17:32:19.524Z,5.18
2017-11-12T17:34:13.799Z,5.15
2017-11-12T17:35:13.709Z,5.12
2017-11-12T17:37:07.827Z,5.10
2017-11-12T17:38:07.737Z,5.10
2017-11-12T17:40:01.012Z,5.15
2017-11-12T17:41:00.911Z,5.10
2017-11-12T17:42:54.179Z,5.16
2017-11-12T17:43:54.107Z,5.12
2017-11-12T17:45:47.378Z,5.16
2017-11-12T17:46:47.286Z,5.09
2017-11-12T17:48:40.677Z,5.12
2017-11-12T17:49:40.473Z,5.12
2017-11-12T17:51:33.731Z,5.16
2017-11-12T17:52:33.655Z,5.20
2017-11-12T17:54:26.929Z,5.18
2017-11-12T17:55:26.836Z,5.21
2017-11-12T17:57:20.092Z,5.23
2017-11-12T17:58:20.017Z,5.20
2017-11-12T18:00:13.296Z,5.18
2017-11-12T18:01:13.203Z,5.15
2017-11-12T18:03:06.455Z,5.16
2017-11-12T18:04:06.385Z,5.16
2017-11-12T18:05:59.664Z,5.12
2017-11-12T18:06:59.565Z,5.18
2017-11-12T18:08:52.838Z,5.20
2017-11-12T18:09:52.749Z,5.15
2017-11-12T18:11:46.001Z,5.18
2017-11-12T18:12:45.930Z,5.16
2017-11-12T18:14:39.206Z,5.21
2017-11-12T18:15:39.113Z,5.20
2017-11-12T18:17:32.367Z,5.23
2017-11-12T18:18:32.293Z,5.21
2017-11-12T18:20:25.566Z,5.18
2017-11-12T18:21:25.476Z,5.20
2017-11-12T18:23:18.728Z,5.21
2017-11-12T18:24:18.658Z,5.28
2017-11-12T18:26:11.943Z,5.26
2017-11-12T18:27:11.840Z,5.28
2017-11-12T18:29:05.114Z,5.27
2017-11-12T18:30:05.015Z,5.28
2017-11-12T18:31:58.266Z,5.27
2017-11-12T18:32:58.193Z,5.27
2017-11-12T18:34:51.470Z,5.41
2017-11-12T18:35:51.377Z,5.28
2017-11-12T18:37:44.628Z,5.37
2017-11-12T18:38:44.556Z,5.28
2017-11-12T18:40:37.833Z,5.28
2017-11-12T18:41:37.739Z,5.27
2017-11-12T18:43:30.991Z,5.27
2017-11-12T18:44:30.923Z,5.27
2017-11-12T18:46:24.191Z,5.30
2017-11-12T18:47:24.103Z,5.28
2017-11-12T18:49:17.383Z,5.36
2017-11-12T18:50:17.294Z,5.26
2017-11-12T18:52:10.546Z,5.30
2017-11-12T18:53:10.474Z,5.34
2017-11-12T18:55:03.749Z,5.31
2017-11-12T18:56:03.674Z,5.30
2017-11-12T18:57:56.912Z,5.34
2017-11-12T18:58:56.843Z,5.39
2017-11-12T19:00:50.117Z,5.34
2017-11-12T19:01:50.024Z,5.30
2017-11-12T19:03:43.362Z,5.31
2017-11-12T19:04:43.291Z,5.36
2017-11-12T19:06:36.564Z,5.34
2017-11-12T19:07:36.475Z,5.33
2017-11-12T19:09:29.762Z,5.34
2017-11-12T19:10:29.661Z,5.45
2017-11-12T19:12:22.914Z,5.37